sensor_id;sensor_type;location;lat;lon;timestamp;pressure;altitude;pressure_sealevel;temperature;humidity
14120;BME280;7138;49.246;9.100;2023-07-30T00:00:58;98218.34;;;21.41;100.00
14120;BME280;7138;49.246;9.100;2023-07-30T00:03:23;98220.38;;;21.36;100.00
14120;BME280;7138;49.246;9.100;2023-07-30T00:05:55;98214.41;;;21.33;100.00
14120;BME280;7138;49.246;9.100;2023-07-30T00:08:21;98223.06;;;21.35;100.00
14120;BME280;7138;49.246;9.100;2023-07-30T00:10:47;98218.81;;;21.32;100.00
14120;BME280;7138;49.246;9.100;2023-07-30T00:13:14;98224.00;;;21.34;100.00
14120;BME280;7138;49.246;9.100;2023-07-30T00:15:40;98238.00;;;21.34;100.00
14120;BME280;7138;49.246;9.100;2023-07-30T00:18:06;98233.69;;;21.33;100.00
14120;BME280;7138;49.246;9.100;2023-07-30T00:20:33;98234.53;;;21.34;100.00
14120;BME280;7138;49.246;9.100;2023-07-30T00:23:01;98233.91;;;21.29;100.00
14120;BME280;7138;49.246;9.100;2023-07-30T00:25:27;98242.66;;;21.29;100.00
14120;BME280;7138;49.246;9.100;2023-07-30T00:27:52;98246.13;;;21.30;100.00
14120;BME280;7138;49.246;9.100;2023-07-30T00:30:18;98246.19;;;21.28;100.00
14120;BME280;7138;49.246;9.100;2023-07-30T00:32:44;98257.81;;;21.24;100.00
14120;BME280;7138;49.246;9.100;2023-07-30T00:35:11;98251.00;;;21.20;100.00
14120;BME280;7138;49.246;9.100;2023-07-30T00:37:36;98260.22;;;21.11;100.00
14120;BME280;7138;49.246;9.100;2023-07-30T00:40:06;98262.25;;;21.05;100.00
14120;BME280;7138;49.246;9.100;2023-07-30T00:42:32;98257.31;;;20.99;100.00
14120;BME280;7138;49.246;9.100;2023-07-30T00:44:57;98260.19;;;20.94;100.00
14120;BME280;7138;49.246;9.100;2023-07-30T00:47:23;98274.00;;;20.98;100.00
14120;BME280;7138;49.246;9.100;2023-07-30T00:49:50;98281.06;;;20.97;100.00
14120;BME280;7138;49.246;9.100;2023-07-30T00:52:18;98279.25;;;20.98;100.00
14120;BME280;7138;49.246;9.100;2023-07-30T00:54:45;98277.31;;;21.01;100.00
14120;BME280;7138;49.246;9.100;2023-07-30T00:57:14;98279.75;;;21.06;100.00
14120;BME280;7138;49.246;9.100;2023-07-30T00:59:41;98284.88;;;21.09;100.00
14120;BME280;7138;49.246;9.100;2023-07-30T01:02:07;98289.13;;;21.11;100.00
14120;BME280;7138;49.246;9.100;2023-07-30T01:04:33;98297.03;;;21.11;100.00
14120;BME280;7138;49.246;9.100;2023-07-30T01:06:58;98291.81;;;21.10;100.00
14120;BME280;7138;49.246;9.100;2023-07-30T01:09:24;98300.69;;;21.07;100.00
14120;BME280;7138;49.246;9.100;2023-07-30T01:11:51;98293.03;;;21.03;100.00
14120;BME280;7138;49.246;9.100;2023-07-30T01:14:22;98298.38;;;21.01;100.00
14120;BME280;7138;49.246;9.100;2023-07-30T01:16:48;98297.59;;;20.99;100.00
14120;BME280;7138;49.246;9.100;2023-07-30T01:19:15;98293.34;;;20.97;100.00
14120;BME280;7138;49.246;9.100;2023-07-30T01:21:42;98288.25;;;20.94;100.00
14120;BME280;7138;49.246;9.100;2023-07-30T01:24:08;98289.16;;;20.93;100.00
14120;BME280;7138;49.246;9.100;2023-07-30T01:26:39;98286.53;;;20.93;100.00
14120;BME280;7138;49.246;9.100;2023-07-30T01:29:14;98278.72;;;20.91;100.00
14120;BME280;7138;49.246;9.100;2023-07-30T01:31:43;98282.19;;;20.92;100.00
14120;BME280;7138;49.246;9.100;2023-07-30T01:34:10;98288.28;;;20.92;100.00
14120;BME280;7138;49.246;9.100;2023-07-30T01:36:38;98287.53;;;20.90;100.00
14120;BME280;7138;49.246;9.100;2023-07-30T01:39:08;98292.84;;;20.89;100.00
14120;BME280;7138;49.246;9.100;2023-07-30T01:41:35;98298.19;;;20.87;100.00
14120;BME280;7138;49.246;9.100;2023-07-30T01:44:00;98310.56;;;20.85;100.00
14120;BME280;7138;49.246;9.100;2023-07-30T01:46:26;98293.84;;;20.86;100.00
14120;BME280;7138;49.246;9.100;2023-07-30T01:48:52;98306.94;;;20.88;100.00
14120;BME280;7138;49.246;9.100;2023-07-30T01:51:18;98309.56;;;20.88;100.00
14120;BME280;7138;49.246;9.100;2023-07-30T01:53:44;98309.41;;;20.91;100.00
14120;BME280;7138;49.246;9.100;2023-07-30T01:56:11;98305.84;;;20.92;100.00
14120;BME280;7138;49.246;9.100;2023-07-30T01:58:37;98321.00;;;20.87;100.00
14120;BME280;7138;49.246;9.100;2023-07-30T02:01:02;98314.88;;;20.86;100.00
14120;BME280;7138;49.246;9.100;2023-07-30T02:03:28;98331.50;;;20.87;100.00
14120;BME280;7138;49.246;9.100;2023-07-30T02:05:54;98309.22;;;20.77;100.00
14120;BME280;7138;49.246;9.100;2023-07-30T02:08:20;98312.19;;;20.88;100.00
14120;BME280;7138;49.246;9.100;2023-07-30T02:10:55;98323.31;;;20.93;100.00
14120;BME280;7138;49.246;9.100;2023-07-30T02:13:22;98312.91;;;20.91;100.00
14120;BME280;7138;49.246;9.100;2023-07-30T02:15:48;98313.72;;;20.92;100.00
14120;BME280;7138;49.246;9.100;2023-07-30T02:18:14;98306.69;;;20.92;100.00
14120;BME280;7138;49.246;9.100;2023-07-30T02:20:40;98298.09;;;20.89;100.00
14120;BME280;7138;49.246;9.100;2023-07-30T02:23:06;98299.97;;;20.87;100.00
14120;BME280;7138;49.246;9.100;2023-07-30T02:25:32;98309.78;;;20.83;100.00
14120;BME280;7138;49.246;9.100;2023-07-30T02:27:59;98309.84;;;20.82;100.00
14120;BME280;7138;49.246;9.100;2023-07-30T02:30:28;98312.63;;;20.79;100.00
14120;BME280;7138;49.246;9.100;2023-07-30T02:32:54;98306.56;;;20.77;100.00
14120;BME280;7138;49.246;9.100;2023-07-30T02:35:20;98298.16;;;20.70;100.00
14120;BME280;7138;49.246;9.100;2023-07-30T02:37:46;98304.91;;;20.76;100.00
14120;BME280;7138;49.246;9.100;2023-07-30T02:40:12;98295.44;;;20.71;100.00
14120;BME280;7138;49.246;9.100;2023-07-30T02:42:37;98311.31;;;20.70;100.00
14120;BME280;7138;49.246;9.100;2023-07-30T02:45:04;98317.53;;;20.67;100.00
14120;BME280;7138;49.246;9.100;2023-07-30T02:47:32;98326.34;;;20.66;100.00
14120;BME280;7138;49.246;9.100;2023-07-30T02:49:58;98322.94;;;20.64;100.00
14120;BME280;7138;49.246;9.100;2023-07-30T02:52:23;98322.06;;;20.64;100.00
14120;BME280;7138;49.246;9.100;2023-07-30T02:54:49;98319.59;;;20.61;100.00
14120;BME280;7138;49.246;9.100;2023-07-30T02:57:15;98328.31;;;20.61;100.00
14120;BME280;7138;49.246;9.100;2023-07-30T02:59:41;98323.31;;;20.57;100.00
14120;BME280;7138;49.246;9.100;2023-07-30T03:02:07;98321.59;;;20.56;100.00
14120;BME280;7138;49.246;9.100;2023-07-30T03:04:34;98325.28;;;20.52;100.00
14120;BME280;7138;49.246;9.100;2023-07-30T03:07:00;98311.47;;;20.48;100.00
14120;BME280;7138;49.246;9.100;2023-07-30T03:09:26;98311.50;;;20.47;100.00
14120;BME280;7138;49.246;9.100;2023-07-30T03:11:53;98315.91;;;20.46;100.00
14120;BME280;7138;49.246;9.100;2023-07-30T03:14:19;98321.16;;;20.46;100.00
14120;BME280;7138;49.246;9.100;2023-07-30T03:16:49;98308.03;;;20.46;100.00
14120;BME280;7138;49.246;9.100;2023-07-30T03:19:15;98314.84;;;20.50;100.00
14120;BME280;7138;49.246;9.100;2023-07-30T03:21:42;98319.06;;;20.54;100.00
14120;BME280;7138;49.246;9.100;2023-07-30T03:24:08;98318.09;;;20.55;100.00
14120;BME280;7138;49.246;9.100;2023-07-30T03:26:34;98321.44;;;20.59;100.00
14120;BME280;7138;49.246;9.100;2023-07-30T03:29:00;98315.34;;;20.58;100.00
14120;BME280;7138;49.246;9.100;2023-07-30T03:31:26;98317.97;;;20.58;100.00
14120;BME280;7138;49.246;9.100;2023-07-30T03:33:54;98317.06;;;20.59;100.00
14120;BME280;7138;49.246;9.100;2023-07-30T03:36:20;98299.50;;;20.60;100.00
14120;BME280;7138;49.246;9.100;2023-07-30T03:38:48;98308.16;;;20.62;100.00
14120;BME280;7138;49.246;9.100;2023-07-30T03:41:14;98324.03;;;20.60;100.00
14120;BME280;7138;49.246;9.100;2023-07-30T03:43:39;98325.84;;;20.58;100.00
14120;BME280;7138;49.246;9.100;2023-07-30T03:46:05;98326.78;;;20.57;100.00
14120;BME280;7138;49.246;9.100;2023-07-30T03:48:31;98320.72;;;20.55;100.00
14120;BME280;7138;49.246;9.100;2023-07-30T03:50:57;98326.84;;;20.56;100.00
14120;BME280;7138;49.246;9.100;2023-07-30T03:53:23;98327.56;;;20.59;100.00
14120;BME280;7138;49.246;9.100;2023-07-30T03:55:50;98323.16;;;20.60;100.00
14120;BME280;7138;49.246;9.100;2023-07-30T03:58:16;98321.38;;;20.60;100.00
14120;BME280;7138;49.246;9.100;2023-07-30T04:00:42;98320.53;;;20.60;100.00
14120;BME280;7138;49.246;9.100;2023-07-30T04:03:08;98329.28;;;20.60;100.00
14120;BME280;7138;49.246;9.100;2023-07-30T04:05:33;98325.69;;;20.61;100.00
14120;BME280;7138;49.246;9.100;2023-07-30T04:07:59;98326.50;;;20.63;100.00
14120;BME280;7138;49.246;9.100;2023-07-30T04:10:25;98329.13;;;20.63;100.00
14120;BME280;7138;49.246;9.100;2023-07-30T04:12:52;98337.06;;;20.62;100.00
14120;BME280;7138;49.246;9.100;2023-07-30T04:15:18;98334.38;;;20.63;100.00
14120;BME280;7138;49.246;9.100;2023-07-30T04:17:44;98335.16;;;20.65;100.00
14120;BME280;7138;49.246;9.100;2023-07-30T04:20:10;98340.34;;;20.67;100.00
14120;BME280;7138;49.246;9.100;2023-07-30T04:22:37;98343.66;;;20.70;100.00
14120;BME280;7138;49.246;9.100;2023-07-30T04:25:03;98351.34;;;20.75;100.00
14120;BME280;7138;49.246;9.100;2023-07-30T04:27:29;98350.28;;;20.79;100.00
14120;BME280;7138;49.246;9.100;2023-07-30T04:29:57;98350.06;;;20.84;100.00
14120;BME280;7138;49.246;9.100;2023-07-30T04:32:22;98348.03;;;20.89;100.00
14120;BME280;7138;49.246;9.100;2023-07-30T04:34:48;98351.38;;;20.92;100.00
14120;BME280;7138;49.246;9.100;2023-07-30T04:37:14;98358.22;;;20.96;100.00
14120;BME280;7138;49.246;9.100;2023-07-30T04:39:40;98339.81;;;20.96;100.00
14120;BME280;7138;49.246;9.100;2023-07-30T04:42:06;98355.34;;;21.01;100.00
14120;BME280;7138;49.246;9.100;2023-07-30T04:44:32;98357.81;;;21.04;100.00
14120;BME280;7138;49.246;9.100;2023-07-30T04:46:59;98361.16;;;21.07;100.00
14120;BME280;7138;49.246;9.100;2023-07-30T04:49:25;98365.44;;;21.10;100.00
14120;BME280;7138;49.246;9.100;2023-07-30T04:51:51;98368.78;;;21.13;100.00
14120;BME280;7138;49.246;9.100;2023-07-30T04:54:17;98364.53;;;21.11;100.00
14120;BME280;7138;49.246;9.100;2023-07-30T04:56:43;98371.66;;;21.09;100.00
14120;BME280;7138;49.246;9.100;2023-07-30T04:59:08;98371.78;;;21.06;100.00
14120;BME280;7138;49.246;9.100;2023-07-30T05:01:34;98370.16;;;21.03;100.00
14120;BME280;7138;49.246;9.100;2023-07-30T05:04:01;98375.75;;;20.96;100.00
14120;BME280;7138;49.246;9.100;2023-07-30T05:06:27;98381.31;;;20.90;100.00
14120;BME280;7138;49.246;9.100;2023-07-30T05:08:53;98382.38;;;20.86;100.00
14120;BME280;7138;49.246;9.100;2023-07-30T05:11:20;98370.94;;;20.87;100.00
14120;BME280;7138;49.246;9.100;2023-07-30T05:13:45;98376.34;;;20.84;100.00
14120;BME280;7138;49.246;9.100;2023-07-30T05:16:11;98377.25;;;20.83;100.00
14120;BME280;7138;49.246;9.100;2023-07-30T05:18:38;98379.09;;;20.81;100.00
14120;BME280;7138;49.246;9.100;2023-07-30T05:21:05;98376.44;;;20.82;100.00
14120;BME280;7138;49.246;9.100;2023-07-30T05:23:31;98374.72;;;20.81;100.00
14120;BME280;7138;49.246;9.100;2023-07-30T05:25:57;98367.59;;;20.83;100.00
14120;BME280;7138;49.246;9.100;2023-07-30T05:28:23;98368.47;;;20.84;100.00
14120;BME280;7138;49.246;9.100;2023-07-30T05:30:49;98370.22;;;20.83;100.00
14120;BME280;7138;49.246;9.100;2023-07-30T05:33:14;98372.00;;;20.83;100.00
14120;BME280;7138;49.246;9.100;2023-07-30T05:35:40;98381.44;;;20.87;100.00
14120;BME280;7138;49.246;9.100;2023-07-30T05:38:07;98388.34;;;20.89;100.00
14120;BME280;7138;49.246;9.100;2023-07-30T05:40:34;98384.66;;;20.93;100.00
14120;BME280;7138;49.246;9.100;2023-07-30T05:43:00;98369.72;;;20.94;100.00
14120;BME280;7138;49.246;9.100;2023-07-30T05:45:26;98372.28;;;20.95;100.00
14120;BME280;7138;49.246;9.100;2023-07-30T05:47:52;98372.13;;;20.98;100.00
14120;BME280;7138;49.246;9.100;2023-07-30T05:50:18;98384.22;;;21.02;100.00
14120;BME280;7138;49.246;9.100;2023-07-30T05:52:44;98376.22;;;21.04;100.00
14120;BME280;7138;49.246;9.100;2023-07-30T05:55:11;98389.22;;;21.08;100.00
14120;BME280;7138;49.246;9.100;2023-07-30T05:57:37;98383.81;;;21.11;100.00
14120;BME280;7138;49.246;9.100;2023-07-30T06:00:05;98380.88;;;21.17;100.00
14120;BME280;7138;49.246;9.100;2023-07-30T06:02:31;98378.00;;;21.22;100.00
14120;BME280;7138;49.246;9.100;2023-07-30T06:04:56;98383.28;;;21.22;100.00
14120;BME280;7138;49.246;9.100;2023-07-30T06:07:22;98379.56;;;21.26;100.00
14120;BME280;7138;49.246;9.100;2023-07-30T06:09:48;98385.44;;;21.31;100.00
14120;BME280;7138;49.246;9.100;2023-07-30T06:12:15;98380.84;;;21.36;100.00
14120;BME280;7138;49.246;9.100;2023-07-30T06:14:41;98369.00;;;21.45;100.00
14120;BME280;7138;49.246;9.100;2023-07-30T06:17:07;98370.09;;;21.58;100.00
14120;BME280;7138;49.246;9.100;2023-07-30T06:19:33;98379.09;;;21.88;100.00
14120;BME280;7138;49.246;9.100;2023-07-30T06:21:59;98393.59;;;22.29;100.00
14120;BME280;7138;49.246;9.100;2023-07-30T06:24:25;98393.22;;;22.70;100.00
14120;BME280;7138;49.246;9.100;2023-07-30T06:26:51;98382.16;;;22.95;100.00
14120;BME280;7138;49.246;9.100;2023-07-30T06:29:18;98394.41;;;23.11;100.00
14120;BME280;7138;49.246;9.100;2023-07-30T06:31:44;98397.44;;;23.19;100.00
14120;BME280;7138;49.246;9.100;2023-07-30T06:34:10;98400.69;;;23.24;100.00
14120;BME280;7138;49.246;9.100;2023-07-30T06:36:36;98409.66;;;23.22;100.00
14120;BME280;7138;49.246;9.100;2023-07-30T06:39:02;98414.47;;;23.14;100.00
14120;BME280;7138;49.246;9.100;2023-07-30T06:41:28;98414.13;;;23.04;100.00
14120;BME280;7138;49.246;9.100;2023-07-30T06:43:54;98408.94;;;22.87;100.00
14120;BME280;7138;49.246;9.100;2023-07-30T06:46:24;98417.09;;;22.67;100.00
14120;BME280;7138;49.246;9.100;2023-07-30T06:48:50;98408.38;;;22.49;100.00
14120;BME280;7138;49.246;9.100;2023-07-30T06:51:19;98414.94;;;22.41;100.00
14120;BME280;7138;49.246;9.100;2023-07-30T06:53:45;98410.88;;;22.35;100.00
14120;BME280;7138;49.246;9.100;2023-07-30T06:56:11;98387.97;;;22.20;100.00
14120;BME280;7138;49.246;9.100;2023-07-30T06:58:37;98413.81;;;22.29;100.00
14120;BME280;7138;49.246;9.100;2023-07-30T07:01:02;98417.88;;;22.19;100.00
14120;BME280;7138;49.246;9.100;2023-07-30T07:03:30;98410.53;;;22.08;100.00
14120;BME280;7138;49.246;9.100;2023-07-30T07:05:56;98417.19;;;21.98;100.00
14120;BME280;7138;49.246;9.100;2023-07-30T07:08:22;98422.97;;;21.88;100.00
14120;BME280;7138;49.246;9.100;2023-07-30T07:10:49;98403.75;;;21.68;100.00
14120;BME280;7138;49.246;9.100;2023-07-30T07:13:15;98420.41;;;21.69;100.00
14120;BME280;7138;49.246;9.100;2023-07-30T07:15:41;98421.47;;;21.65;100.00
14120;BME280;7138;49.246;9.100;2023-07-30T07:18:07;98431.00;;;21.67;100.00
14120;BME280;7138;49.246;9.100;2023-07-30T07:20:34;98427.59;;;21.65;100.00
14120;BME280;7138;49.246;9.100;2023-07-30T07:23:00;98424.22;;;21.63;100.00
14120;BME280;7138;49.246;9.100;2023-07-30T07:25:26;98421.63;;;21.62;100.00
14120;BME280;7138;49.246;9.100;2023-07-30T07:27:51;98416.31;;;21.63;100.00
14120;BME280;7138;49.246;9.100;2023-07-30T07:30:17;98424.06;;;21.66;100.00
14120;BME280;7138;49.246;9.100;2023-07-30T07:32:43;98423.19;;;21.66;100.00
14120;BME280;7138;49.246;9.100;2023-07-30T07:35:09;98435.66;;;21.62;100.00
14120;BME280;7138;49.246;9.100;2023-07-30T07:37:37;98429.53;;;21.62;100.00
14120;BME280;7138;49.246;9.100;2023-07-30T07:40:04;98426.19;;;21.58;100.00
14120;BME280;7138;49.246;9.100;2023-07-30T07:42:30;98433.47;;;21.53;100.00
14120;BME280;7138;49.246;9.100;2023-07-30T07:44:56;98430.06;;;21.51;100.00
14120;BME280;7138;49.246;9.100;2023-07-30T07:47:22;98433.47;;;21.53;100.00
14120;BME280;7138;49.246;9.100;2023-07-30T07:49:47;98430.94;;;21.52;100.00
14120;BME280;7138;49.246;9.100;2023-07-30T07:52:14;98448.16;;;21.40;100.00
14120;BME280;7138;49.246;9.100;2023-07-30T07:54:42;98441.34;;;21.36;100.00
14120;BME280;7138;49.246;9.100;2023-07-30T07:57:07;98448.50;;;21.15;100.00
14120;BME280;7138;49.246;9.100;2023-07-30T07:59:34;98451.19;;;21.14;100.00
14120;BME280;7138;49.246;9.100;2023-07-30T08:02:00;98448.88;;;21.06;100.00
14120;BME280;7138;49.246;9.100;2023-07-30T08:04:26;98449.84;;;21.04;100.00
14120;BME280;7138;49.246;9.100;2023-07-30T08:06:51;98449.31;;;20.97;100.00
14120;BME280;7138;49.246;9.100;2023-07-30T08:09:17;98444.75;;;21.01;100.00
14120;BME280;7138;49.246;9.100;2023-07-30T08:11:44;98448.81;;;21.08;100.00
14120;BME280;7138;49.246;9.100;2023-07-30T08:14:10;98446.16;;;21.08;100.00
14120;BME280;7138;49.246;9.100;2023-07-30T08:16:36;98445.59;;;21.01;100.00
14120;BME280;7138;49.246;9.100;2023-07-30T08:19:02;98443.91;;;21.00;100.00
14120;BME280;7138;49.246;9.100;2023-07-30T08:21:28;98439.78;;;20.95;100.00
14120;BME280;7138;49.246;9.100;2023-07-30T08:23:54;98458.53;;;20.87;100.00
14120;BME280;7138;49.246;9.100;2023-07-30T08:26:19;98455.97;;;20.86;100.00
14120;BME280;7138;49.246;9.100;2023-07-30T08:28:47;98463.81;;;20.87;100.00
14120;BME280;7138;49.246;9.100;2023-07-30T08:31:12;98455.06;;;20.87;100.00
14120;BME280;7138;49.246;9.100;2023-07-30T08:33:38;98464.81;;;20.85;100.00
14120;BME280;7138;49.246;9.100;2023-07-30T08:36:04;98466.34;;;20.89;100.00
14120;BME280;7138;49.246;9.100;2023-07-30T08:38:30;98465.44;;;20.90;100.00
14120;BME280;7138;49.246;9.100;2023-07-30T08:40:56;98455.50;;;20.96;100.00
14120;BME280;7138;49.246;9.100;2023-07-30T08:43:22;98478.34;;;21.14;100.00
14120;BME280;7138;49.246;9.100;2023-07-30T08:45:49;98455.81;;;21.09;100.00
14120;BME280;7138;49.246;9.100;2023-07-30T08:48:15;98457.78;;;21.22;100.00
14120;BME280;7138;49.246;9.100;2023-07-30T08:50:42;98468.09;;;21.27;100.00
14120;BME280;7138;49.246;9.100;2023-07-30T08:53:09;98468.16;;;21.25;100.00
14120;BME280;7138;49.246;9.100;2023-07-30T08:55:37;98460.97;;;21.29;100.00
14120;BME280;7138;49.246;9.100;2023-07-30T08:58:04;98465.03;;;21.36;100.00
14120;BME280;7138;49.246;9.100;2023-07-30T09:00:34;98470.03;;;21.41;100.00
14120;BME280;7138;49.246;9.100;2023-07-30T09:03:04;98472.47;;;21.45;100.00
14120;BME280;7138;49.246;9.100;2023-07-30T09:05:31;98468.31;;;21.58;100.00
14120;BME280;7138;49.246;9.100;2023-07-30T09:07:57;98463.84;;;21.77;100.00
14120;BME280;7138;49.246;9.100;2023-07-30T09:10:25;98472.56;;;21.97;100.00
14120;BME280;7138;49.246;9.100;2023-07-30T09:12:52;98469.88;;;22.15;100.00
14120;BME280;7138;49.246;9.100;2023-07-30T09:15:30;98457.38;;;22.36;100.00
14120;BME280;7138;49.246;9.100;2023-07-30T09:17:57;98455.81;;;22.49;100.00
14120;BME280;7138;49.246;9.100;2023-07-30T09:20:24;98464.06;;;22.59;100.00
14120;BME280;7138;49.246;9.100;2023-07-30T09:22:50;98462.78;;;22.67;100.00
14120;BME280;7138;49.246;9.100;2023-07-30T09:25:19;98461.50;;;22.74;100.00
14120;BME280;7138;49.246;9.100;2023-07-30T09:27:50;98466.09;;;22.86;100.00
14120;BME280;7138;49.246;9.100;2023-07-30T09:30:22;98463.59;;;23.01;100.00
14120;BME280;7138;49.246;9.100;2023-07-30T09:32:52;98467.69;;;23.06;100.00
14120;BME280;7138;49.246;9.100;2023-07-30T09:35:18;98463.84;;;23.12;100.00
14120;BME280;7138;49.246;9.100;2023-07-30T09:37:46;98473.38;;;23.14;97.35
14120;BME280;7138;49.246;9.100;2023-07-30T09:40:14;98468.97;;;23.30;99.38
14120;BME280;7138;49.246;9.100;2023-07-30T09:42:44;98469.25;;;23.42;97.49
14120;BME280;7138;49.246;9.100;2023-07-30T09:45:17;98470.16;;;23.56;99.30
14120;BME280;7138;49.246;9.100;2023-07-30T09:47:46;98463.59;;;23.63;95.85
14120;BME280;7138;49.246;9.100;2023-07-30T09:50:14;98483.09;;;23.76;92.91
14120;BME280;7138;49.246;9.100;2023-07-30T09:52:41;98485.59;;;23.93;94.92
14120;BME280;7138;49.246;9.100;2023-07-30T09:55:10;98482.53;;;24.01;90.76
14120;BME280;7138;49.246;9.100;2023-07-30T09:57:36;98476.94;;;23.91;86.64
14120;BME280;7138;49.246;9.100;2023-07-30T10:00:02;98488.03;;;23.82;84.63
14120;BME280;7138;49.246;9.100;2023-07-30T10:02:30;98481.72;;;23.69;84.40
14120;BME280;7138;49.246;9.100;2023-07-30T10:04:59;98485.13;;;23.71;85.22
14120;BME280;7138;49.246;9.100;2023-07-30T10:07:30;98488.56;;;23.73;85.49
14120;BME280;7138;49.246;9.100;2023-07-30T10:10:00;98494.00;;;23.70;84.32
14120;BME280;7138;49.246;9.100;2023-07-30T10:12:31;98493.72;;;23.75;86.49
14120;BME280;7138;49.246;9.100;2023-07-30T10:14:58;98493.31;;;23.82;89.36
14120;BME280;7138;49.246;9.100;2023-07-30T10:17:24;98490.88;;;23.93;88.46
14120;BME280;7138;49.246;9.100;2023-07-30T10:19:50;98495.13;;;24.12;89.62
14120;BME280;7138;49.246;9.100;2023-07-30T10:22:22;98493.88;;;24.33;86.59
14120;BME280;7138;49.246;9.100;2023-07-30T10:24:57;98476.34;;;24.46;84.28
14120;BME280;7138;49.246;9.100;2023-07-30T10:27:26;98487.66;;;24.48;83.67
14120;BME280;7138;49.246;9.100;2023-07-30T10:30:10;98491.97;;;24.35;82.37
14120;BME280;7138;49.246;9.100;2023-07-30T10:32:40;98503.28;;;24.23;82.49
14120;BME280;7138;49.246;9.100;2023-07-30T10:35:07;98509.88;;;24.16;83.03
14120;BME280;7138;49.246;9.100;2023-07-30T10:37:33;98497.69;;;24.13;82.65
14120;BME280;7138;49.246;9.100;2023-07-30T10:39:59;98500.75;;;24.06;82.48
14120;BME280;7138;49.246;9.100;2023-07-30T10:42:33;98502.31;;;23.94;83.13
14120;BME280;7138;49.246;9.100;2023-07-30T10:45:00;98498.75;;;23.95;82.80
14120;BME280;7138;49.246;9.100;2023-07-30T10:47:28;98498.63;;;23.97;82.16
14120;BME280;7138;49.246;9.100;2023-07-30T10:49:54;98523.53;;;23.92;81.62
14120;BME280;7138;49.246;9.100;2023-07-30T10:52:24;98518.16;;;23.94;82.07
14120;BME280;7138;49.246;9.100;2023-07-30T10:54:59;98495.81;;;24.00;80.55
14120;BME280;7138;49.246;9.100;2023-07-30T10:57:30;98511.84;;;24.12;81.55
14120;BME280;7138;49.246;9.100;2023-07-30T10:59:57;98497.16;;;24.22;82.34
14120;BME280;7138;49.246;9.100;2023-07-30T11:02:22;98496.31;;;24.36;82.28
14120;BME280;7138;49.246;9.100;2023-07-30T11:04:50;98510.53;;;24.49;81.49
14120;BME280;7138;49.246;9.100;2023-07-30T11:07:17;98518.84;;;24.57;79.31
14120;BME280;7138;49.246;9.100;2023-07-30T11:09:44;98502.72;;;24.76;81.04
14120;BME280;7138;49.246;9.100;2023-07-30T11:12:10;98503.56;;;24.76;77.87
14120;BME280;7138;49.246;9.100;2023-07-30T11:14:36;98515.56;;;24.68;76.74
14120;BME280;7138;49.246;9.100;2023-07-30T11:17:02;98511.38;;;24.64;76.73
14120;BME280;7138;49.246;9.100;2023-07-30T11:19:29;98516.69;;;24.64;76.93
14120;BME280;7138;49.246;9.100;2023-07-30T11:21:57;98521.78;;;24.53;76.41
14120;BME280;7138;49.246;9.100;2023-07-30T11:24:33;98520.91;;;24.52;75.91
14120;BME280;7138;49.246;9.100;2023-07-30T11:27:01;98517.94;;;24.28;74.22
14120;BME280;7138;49.246;9.100;2023-07-30T11:29:27;98522.81;;;24.20;76.60
14120;BME280;7138;49.246;9.100;2023-07-30T11:31:57;98520.78;;;24.10;75.49
14120;BME280;7138;49.246;9.100;2023-07-30T11:34:26;98524.88;;;24.15;75.49
14120;BME280;7138;49.246;9.100;2023-07-30T11:36:53;98524.59;;;24.20;77.53
14120;BME280;7138;49.246;9.100;2023-07-30T11:39:21;98529.09;;;24.33;77.93
14120;BME280;7138;49.246;9.100;2023-07-30T11:41:48;98531.25;;;24.41;76.64
14120;BME280;7138;49.246;9.100;2023-07-30T11:44:30;98533.34;;;24.50;74.95
14120;BME280;7138;49.246;9.100;2023-07-30T11:46:56;98538.66;;;24.50;73.72
14120;BME280;7138;49.246;9.100;2023-07-30T11:49:22;98530.00;;;24.62;74.98
14120;BME280;7138;49.246;9.100;2023-07-30T11:51:48;98538.78;;;24.63;73.18
14120;BME280;7138;49.246;9.100;2023-07-30T11:54:23;98538.50;;;24.67;72.85
14120;BME280;7138;49.246;9.100;2023-07-30T11:56:54;98548.44;;;24.78;71.49
14120;BME280;7138;49.246;9.100;2023-07-30T11:59:21;98556.88;;;24.84;72.84
14120;BME280;7138;49.246;9.100;2023-07-30T12:01:49;98573.91;;;24.94;74.26
14120;BME280;7138;49.246;9.100;2023-07-30T12:04:15;98569.91;;;24.87;71.11
14120;BME280;7138;49.246;9.100;2023-07-30T12:06:45;98576.19;;;24.86;71.08
14120;BME280;7138;49.246;9.100;2023-07-30T12:09:12;98572.00;;;24.82;69.54
14120;BME280;7138;49.246;9.100;2023-07-30T12:11:48;98574.28;;;24.88;70.19
14120;BME280;7138;49.246;9.100;2023-07-30T12:14:14;98579.28;;;24.93;69.02
14120;BME280;7138;49.246;9.100;2023-07-30T12:16:40;98558.03;;;25.09;71.60
14120;BME280;7138;49.246;9.100;2023-07-30T12:19:06;98564.09;;;25.11;68.43
14120;BME280;7138;49.246;9.100;2023-07-30T12:21:32;98574.69;;;25.11;68.65
14120;BME280;7138;49.246;9.100;2023-07-30T12:23:58;98578.25;;;25.24;70.51
14120;BME280;7138;49.246;9.100;2023-07-30T12:26:24;98572.38;;;25.33;68.64
14120;BME280;7138;49.246;9.100;2023-07-30T12:28:51;98565.78;;;25.26;66.65
14120;BME280;7138;49.246;9.100;2023-07-30T12:31:17;98572.88;;;25.39;69.33
14120;BME280;7138;49.246;9.100;2023-07-30T12:33:43;98568.03;;;25.46;67.88
14120;BME280;7138;49.246;9.100;2023-07-30T12:36:09;98584.31;;;25.40;66.67
14120;BME280;7138;49.246;9.100;2023-07-30T12:38:35;98583.06;;;25.45;67.97
14120;BME280;7138;49.246;9.100;2023-07-30T12:41:01;98582.31;;;25.43;65.99
14120;BME280;7138;49.246;9.100;2023-07-30T12:43:27;98582.81;;;25.50;68.43
14120;BME280;7138;49.246;9.100;2023-07-30T12:45:54;98588.00;;;25.51;65.69
14120;BME280;7138;49.246;9.100;2023-07-30T12:48:20;98580.81;;;25.53;67.59
14120;BME280;7138;49.246;9.100;2023-07-30T12:50:45;98594.53;;;25.46;65.36
14120;BME280;7138;49.246;9.100;2023-07-30T12:53:11;98602.47;;;25.46;68.70
14120;BME280;7138;49.246;9.100;2023-07-30T12:55:37;98603.50;;;25.43;67.66
14120;BME280;7138;49.246;9.100;2023-07-30T12:58:04;98599.44;;;25.24;65.56
14120;BME280;7138;49.246;9.100;2023-07-30T13:00:31;98593.88;;;25.28;67.57